Current | Forecast
Updated: 1:56 PM JST on June 23, 2017
Observed at Okinawa, Japan
Temperature 85°F
Humidity 92%
Dew Point 83°F
Wind SSW at 17 mph
Pressure 29.83 in (Steady)
Conditions Scattered Clouds
Visibility 10.0 miles
UV 12 out of 16
Clouds (FEW) : 1200 ft
(FEW) : 13000 ft
Scattered Clouds (SCT) : 18000 ft
Scattered Clouds (SCT) : 20000 ft
Yesterday's Maximum 87°F
Yesterday's Minimum 81°F approx.
Yesterday's Cooling Degree Days 19 approx.
Sunrise5:37 AM JST
Sunset7:24 PM JST
Moon Rise4:38 AM JST
Moon Set6:25 PM JST
Moon PhaseMoon Phase
Waning Crescent
Raw METARMETAR RODN 230456Z AUTO 21015KT 10SM FEW012 FEW130 SCT180 SCT200 30/28 A2981 RMK AO2 SLP099 T02960281 RVRNO PNO CHINO RWY05 $


Monday
. High: 77° F.
Tuesday
. High: 75° F.
Wednesday
. High: 73° F.
Thursday
. High: 75° F.
Friday
. High: 77° F.
Saturday
. High: 77° F.
Sunday
. High: 77° F.
Monday
. High: 79° F.

Units: English | Metric

Find the Weather for any City, State or Zipcode, or Country:

U.S. State List | Severe Weather | Tropical Storms | Ski Conditions
United States | Canada | Central America | South America | Asia | Europe | Australia | Africa | Islands

Weather Underground

© Copyright 2017
The Weather Company, LLC